Sao Luiz, Brazil
Current Conditions -  °F | °C
As of 5:00 AM on Sunday 23 Nov 2014 (Local Time) from SBBV Reporting Station
Scattered Clouds Scattered Clouds  
Wind Chill: 72°   Ceiling: Unl
Heat Index: 72°   Visibility: 6mi
Dew Point: 70°   Wind: 5mph
Humidity: 94%   Direction: 300°WNW
Pressure: 29.83"   Gusts: NA
Location:  1.01°N, 60.02°W
Report Text: SBBV 230900Z 30004KT 9999 FEW009 SCT025 FEW030TCU 22/21 Q1010
Loading
Personal Weather Stations






























Interactive Weather Map New forecast layout! Learn more

10-Day Weather Forecast

Advertisements
Track Severe Weather on mobile